sensor_id;sensor_type;location;lat;lon;timestamp;temperature;humidity
22161;DHT22;49035;48.812;11.762;2023-12-20T00:01:02;3.50;99.90
22161;DHT22;49035;48.812;11.762;2023-12-20T00:03:28;3.50;99.90
22161;DHT22;49035;48.812;11.762;2023-12-20T00:05:54;3.50;99.90
22161;DHT22;49035;48.812;11.762;2023-12-20T00:08:20;3.50;99.90
22161;DHT22;49035;48.812;11.762;2023-12-20T00:10:46;3.50;99.90
22161;DHT22;49035;48.812;11.762;2023-12-20T00:13:12;3.60;99.90
22161;DHT22;49035;48.812;11.762;2023-12-20T00:15:37;3.60;99.90
22161;DHT22;49035;48.812;11.762;2023-12-20T00:18:03;3.60;99.90
22161;DHT22;49035;48.812;11.762;2023-12-20T00:20:29;3.60;99.90
22161;DHT22;49035;48.812;11.762;2023-12-20T00:22:56;3.70;99.90
22161;DHT22;49035;48.812;11.762;2023-12-20T00:25:23;3.70;99.90
22161;DHT22;49035;48.812;11.762;2023-12-20T00:27:48;3.70;99.90
22161;DHT22;49035;48.812;11.762;2023-12-20T00:30:14;3.70;99.90
22161;DHT22;49035;48.812;11.762;2023-12-20T00:32:39;3.70;99.90
22161;DHT22;49035;48.812;11.762;2023-12-20T00:35:12;3.70;99.90
22161;DHT22;49035;48.812;11.762;2023-12-20T00:37:37;3.80;99.90
22161;DHT22;49035;48.812;11.762;2023-12-20T00:40:03;3.80;99.90
22161;DHT22;49035;48.812;11.762;2023-12-20T00:42:29;3.80;99.90
22161;DHT22;49035;48.812;11.762;2023-12-20T00:44:54;3.70;99.90
22161;DHT22;49035;48.812;11.762;2023-12-20T00:47:20;3.70;99.90
22161;DHT22;49035;48.812;11.762;2023-12-20T00:49:45;3.80;99.90
22161;DHT22;49035;48.812;11.762;2023-12-20T00:52:11;3.80;99.90
22161;DHT22;49035;48.812;11.762;2023-12-20T00:54:37;3.80;99.90
22161;DHT22;49035;48.812;11.762;2023-12-20T00:57:02;3.90;99.90
22161;DHT22;49035;48.812;11.762;2023-12-20T00:59:28;3.80;99.90
22161;DHT22;49035;48.812;11.762;2023-12-20T01:01:53;3.70;99.90
22161;DHT22;49035;48.812;11.762;2023-12-20T01:04:19;3.60;99.90
22161;DHT22;49035;48.812;11.762;2023-12-20T01:06:44;3.50;99.90
22161;DHT22;49035;48.812;11.762;2023-12-20T01:09:10;3.40;99.90
22161;DHT22;49035;48.812;11.762;2023-12-20T01:11:36;3.40;99.90
22161;DHT22;49035;48.812;11.762;2023-12-20T01:14:01;3.30;99.90
22161;DHT22;49035;48.812;11.762;2023-12-20T01:16:27;3.30;99.90
22161;DHT22;49035;48.812;11.762;2023-12-20T01:18:52;3.30;99.90
22161;DHT22;49035;48.812;11.762;2023-12-20T01:21:18;3.20;99.90
22161;DHT22;49035;48.812;11.762;2023-12-20T01:23:43;3.30;99.90
22161;DHT22;49035;48.812;11.762;2023-12-20T01:26:09;3.20;99.90
22161;DHT22;49035;48.812;11.762;2023-12-20T01:28:34;3.20;99.90
22161;DHT22;49035;48.812;11.762;2023-12-20T01:31:00;3.20;99.90
22161;DHT22;49035;48.812;11.762;2023-12-20T01:33:25;3.20;99.90
22161;DHT22;49035;48.812;11.762;2023-12-20T01:35:51;3.20;99.90
22161;DHT22;49035;48.812;11.762;2023-12-20T01:38:17;3.20;99.90
22161;DHT22;49035;48.812;11.762;2023-12-20T01:40:44;3.20;99.90
22161;DHT22;49035;48.812;11.762;2023-12-20T01:43:10;3.20;99.90
22161;DHT22;49035;48.812;11.762;2023-12-20T01:45:37;3.10;99.90
22161;DHT22;49035;48.812;11.762;2023-12-20T01:48:04;3.10;99.90
22161;DHT22;49035;48.812;11.762;2023-12-20T01:50:31;3.10;99.90
22161;DHT22;49035;48.812;11.762;2023-12-20T01:52:59;3.20;99.90
22161;DHT22;49035;48.812;11.762;2023-12-20T01:55:27;3.20;99.90
22161;DHT22;49035;48.812;11.762;2023-12-20T01:57:56;3.20;99.90
22161;DHT22;49035;48.812;11.762;2023-12-20T02:00:23;3.20;99.90
22161;DHT22;49035;48.812;11.762;2023-12-20T02:02:50;3.20;99.90
22161;DHT22;49035;48.812;11.762;2023-12-20T02:05:18;3.30;99.90
22161;DHT22;49035;48.812;11.762;2023-12-20T02:07:43;3.30;99.90
22161;DHT22;49035;48.812;11.762;2023-12-20T02:10:09;3.30;99.90
22161;DHT22;49035;48.812;11.762;2023-12-20T02:12:35;3.20;99.90
22161;DHT22;49035;48.812;11.762;2023-12-20T02:15:01;3.30;99.90
22161;DHT22;49035;48.812;11.762;2023-12-20T02:17:27;3.20;99.90
22161;DHT22;49035;48.812;11.762;2023-12-20T02:19:53;3.20;99.90
22161;DHT22;49035;48.812;11.762;2023-12-20T02:22:18;3.20;99.90
22161;DHT22;49035;48.812;11.762;2023-12-20T02:24:44;3.20;99.90
22161;DHT22;49035;48.812;11.762;2023-12-20T02:27:09;3.20;99.90
22161;DHT22;49035;48.812;11.762;2023-12-20T02:29:36;3.30;99.90
22161;DHT22;49035;48.812;11.762;2023-12-20T02:32:02;3.30;99.90
22161;DHT22;49035;48.812;11.762;2023-12-20T02:34:28;3.30;99.90
22161;DHT22;49035;48.812;11.762;2023-12-20T02:36:54;3.30;99.90
22161;DHT22;49035;48.812;11.762;2023-12-20T02:39:20;3.30;99.90
22161;DHT22;49035;48.812;11.762;2023-12-20T02:41:46;3.40;99.90
22161;DHT22;49035;48.812;11.762;2023-12-20T02:44:12;3.40;99.90
22161;DHT22;49035;48.812;11.762;2023-12-20T02:46:37;3.50;99.90
22161;DHT22;49035;48.812;11.762;2023-12-20T02:49:03;3.50;99.90
22161;DHT22;49035;48.812;11.762;2023-12-20T02:51:28;3.50;99.90
22161;DHT22;49035;48.812;11.762;2023-12-20T02:53:54;3.60;99.90
22161;DHT22;49035;48.812;11.762;2023-12-20T02:56:20;3.60;99.90
22161;DHT22;49035;48.812;11.762;2023-12-20T02:58:45;3.60;99.90
22161;DHT22;49035;48.812;11.762;2023-12-20T03:01:11;3.60;99.90
22161;DHT22;49035;48.812;11.762;2023-12-20T03:03:36;3.60;99.90
22161;DHT22;49035;48.812;11.762;2023-12-20T03:06:02;3.70;99.90
22161;DHT22;49035;48.812;11.762;2023-12-20T03:08:28;3.80;99.90
22161;DHT22;49035;48.812;11.762;2023-12-20T03:10:53;3.80;99.90
22161;DHT22;49035;48.812;11.762;2023-12-20T03:13:19;3.70;99.90
22161;DHT22;49035;48.812;11.762;2023-12-20T03:15:45;3.70;99.90
22161;DHT22;49035;48.812;11.762;2023-12-20T03:18:11;3.80;99.90
22161;DHT22;49035;48.812;11.762;2023-12-20T03:20:37;3.80;99.90
22161;DHT22;49035;48.812;11.762;2023-12-20T03:23:03;3.80;99.90
22161;DHT22;49035;48.812;11.762;2023-12-20T03:25:29;3.90;99.90
22161;DHT22;49035;48.812;11.762;2023-12-20T03:27:54;3.90;99.90
22161;DHT22;49035;48.812;11.762;2023-12-20T03:30:20;3.90;99.90
22161;DHT22;49035;48.812;11.762;2023-12-20T03:32:46;4.00;99.90
22161;DHT22;49035;48.812;11.762;2023-12-20T03:35:12;4.00;99.90
22161;DHT22;49035;48.812;11.762;2023-12-20T03:37:37;4.10;99.90
22161;DHT22;49035;48.812;11.762;2023-12-20T03:40:03;4.10;99.90
22161;DHT22;49035;48.812;11.762;2023-12-20T03:42:29;4.10;99.90
22161;DHT22;49035;48.812;11.762;2023-12-20T03:44:55;4.00;99.90
22161;DHT22;49035;48.812;11.762;2023-12-20T03:47:20;4.00;99.90
22161;DHT22;49035;48.812;11.762;2023-12-20T03:49:46;4.00;99.90
22161;DHT22;49035;48.812;11.762;2023-12-20T03:52:12;4.00;99.90
22161;DHT22;49035;48.812;11.762;2023-12-20T03:54:37;3.90;99.90
22161;DHT22;49035;48.812;11.762;2023-12-20T03:57:03;3.90;99.90
22161;DHT22;49035;48.812;11.762;2023-12-20T03:59:29;3.90;99.90
22161;DHT22;49035;48.812;11.762;2023-12-20T04:01:54;3.90;99.90
22161;DHT22;49035;48.812;11.762;2023-12-20T04:04:20;3.80;99.90
22161;DHT22;49035;48.812;11.762;2023-12-20T04:06:46;3.80;99.90
22161;DHT22;49035;48.812;11.762;2023-12-20T04:09:12;3.80;99.90
22161;DHT22;49035;48.812;11.762;2023-12-20T04:11:41;3.80;99.90
22161;DHT22;49035;48.812;11.762;2023-12-20T04:14:06;3.80;99.90
22161;DHT22;49035;48.812;11.762;2023-12-20T04:16:32;3.90;99.90
22161;DHT22;49035;48.812;11.762;2023-12-20T04:19:04;3.90;99.90
22161;DHT22;49035;48.812;11.762;2023-12-20T04:21:29;4.00;99.90
22161;DHT22;49035;48.812;11.762;2023-12-20T04:23:55;4.00;99.90
22161;DHT22;49035;48.812;11.762;2023-12-20T04:26:21;4.00;99.90
22161;DHT22;49035;48.812;11.762;2023-12-20T04:28:46;3.90;99.90
22161;DHT22;49035;48.812;11.762;2023-12-20T04:31:12;3.90;99.90
22161;DHT22;49035;48.812;11.762;2023-12-20T04:33:38;4.00;99.90
22161;DHT22;49035;48.812;11.762;2023-12-20T04:36:06;4.00;99.90
22161;DHT22;49035;48.812;11.762;2023-12-20T04:38:34;4.00;99.90
22161;DHT22;49035;48.812;11.762;2023-12-20T04:41:02;4.00;99.90
22161;DHT22;49035;48.812;11.762;2023-12-20T04:43:30;3.90;99.90
22161;DHT22;49035;48.812;11.762;2023-12-20T04:45:58;3.90;99.90
22161;DHT22;49035;48.812;11.762;2023-12-20T04:48:24;4.00;99.90
22161;DHT22;49035;48.812;11.762;2023-12-20T04:50:55;4.00;99.90
22161;DHT22;49035;48.812;11.762;2023-12-20T04:53:32;4.00;99.90
22161;DHT22;49035;48.812;11.762;2023-12-20T04:55:58;3.90;99.90
22161;DHT22;49035;48.812;11.762;2023-12-20T04:58:23;3.80;99.90
22161;DHT22;49035;48.812;11.762;2023-12-20T05:00:49;3.90;99.90
22161;DHT22;49035;48.812;11.762;2023-12-20T05:03:15;3.90;99.90
22161;DHT22;49035;48.812;11.762;2023-12-20T05:05:41;3.90;99.90
22161;DHT22;49035;48.812;11.762;2023-12-20T05:08:11;3.90;99.90
22161;DHT22;49035;48.812;11.762;2023-12-20T05:10:37;3.90;99.90
22161;DHT22;49035;48.812;11.762;2023-12-20T05:13:03;3.90;99.90
22161;DHT22;49035;48.812;11.762;2023-12-20T05:15:41;3.90;99.90
22161;DHT22;49035;48.812;11.762;2023-12-20T05:18:07;3.90;99.90
22161;DHT22;49035;48.812;11.762;2023-12-20T05:20:33;3.90;99.90
22161;DHT22;49035;48.812;11.762;2023-12-20T05:23:11;3.90;99.90
22161;DHT22;49035;48.812;11.762;2023-12-20T05:25:50;3.90;99.90
22161;DHT22;49035;48.812;11.762;2023-12-20T05:28:26;3.90;99.90
22161;DHT22;49035;48.812;11.762;2023-12-20T05:30:54;4.00;99.90
22161;DHT22;49035;48.812;11.762;2023-12-20T05:33:23;3.90;99.90
22161;DHT22;49035;48.812;11.762;2023-12-20T05:35:50;4.00;99.90
22161;DHT22;49035;48.812;11.762;2023-12-20T05:38:15;3.90;99.90
22161;DHT22;49035;48.812;11.762;2023-12-20T05:40:42;4.00;99.90
22161;DHT22;49035;48.812;11.762;2023-12-20T05:43:16;4.00;99.90
22161;DHT22;49035;48.812;11.762;2023-12-20T05:45:42;4.00;99.90
22161;DHT22;49035;48.812;11.762;2023-12-20T05:48:13;4.00;99.90
22161;DHT22;49035;48.812;11.762;2023-12-20T05:50:42;4.00;99.90
22161;DHT22;49035;48.812;11.762;2023-12-20T05:53:10;4.00;99.90
22161;DHT22;49035;48.812;11.762;2023-12-20T05:55:36;4.10;99.90
22161;DHT22;49035;48.812;11.762;2023-12-20T05:58:04;4.00;99.90
22161;DHT22;49035;48.812;11.762;2023-12-20T06:00:33;4.00;99.90
22161;DHT22;49035;48.812;11.762;2023-12-20T06:03:02;4.10;99.90
22161;DHT22;49035;48.812;11.762;2023-12-20T06:05:30;4.10;99.90
22161;DHT22;49035;48.812;11.762;2023-12-20T06:07:58;4.10;99.90
22161;DHT22;49035;48.812;11.762;2023-12-20T06:10:27;4.10;99.90
22161;DHT22;49035;48.812;11.762;2023-12-20T06:12:53;4.10;99.90
22161;DHT22;49035;48.812;11.762;2023-12-20T06:15:18;4.20;99.90
22161;DHT22;49035;48.812;11.762;2023-12-20T06:17:44;4.20;99.90
22161;DHT22;49035;48.812;11.762;2023-12-20T06:20:17;4.20;99.90
22161;DHT22;49035;48.812;11.762;2023-12-20T06:22:43;4.10;99.90
22161;DHT22;49035;48.812;11.762;2023-12-20T06:25:11;4.20;99.90
22161;DHT22;49035;48.812;11.762;2023-12-20T06:27:37;4.20;99.90
22161;DHT22;49035;48.812;11.762;2023-12-20T06:30:03;4.10;99.90
22161;DHT22;49035;48.812;11.762;2023-12-20T06:32:28;4.10;99.90
22161;DHT22;49035;48.812;11.762;2023-12-20T06:34:54;4.10;99.90
22161;DHT22;49035;48.812;11.762;2023-12-20T06:37:20;4.20;99.90
22161;DHT22;49035;48.812;11.762;2023-12-20T06:39:46;4.10;99.90
22161;DHT22;49035;48.812;11.762;2023-12-20T06:42:12;4.10;99.90
22161;DHT22;49035;48.812;11.762;2023-12-20T06:44:38;4.10;99.90
22161;DHT22;49035;48.812;11.762;2023-12-20T06:47:04;4.20;99.90
22161;DHT22;49035;48.812;11.762;2023-12-20T06:49:30;4.20;99.90
22161;DHT22;49035;48.812;11.762;2023-12-20T06:51:55;4.20;99.90
22161;DHT22;49035;48.812;11.762;2023-12-20T06:54:21;4.20;99.90
22161;DHT22;49035;48.812;11.762;2023-12-20T06:56:46;4.20;99.90
22161;DHT22;49035;48.812;11.762;2023-12-20T06:59:12;4.20;99.90
22161;DHT22;49035;48.812;11.762;2023-12-20T07:01:38;4.20;99.90
22161;DHT22;49035;48.812;11.762;2023-12-20T07:04:03;4.20;99.90
22161;DHT22;49035;48.812;11.762;2023-12-20T07:06:29;4.30;99.90
22161;DHT22;49035;48.812;11.762;2023-12-20T07:08:54;4.30;99.90
22161;DHT22;49035;48.812;11.762;2023-12-20T07:11:20;4.30;99.90
22161;DHT22;49035;48.812;11.762;2023-12-20T07:13:46;4.30;99.90
22161;DHT22;49035;48.812;11.762;2023-12-20T07:16:12;4.30;99.90
22161;DHT22;49035;48.812;11.762;2023-12-20T07:18:38;4.30;99.90
22161;DHT22;49035;48.812;11.762;2023-12-20T07:21:04;4.30;99.90
22161;DHT22;49035;48.812;11.762;2023-12-20T07:23:29;4.30;99.90
22161;DHT22;49035;48.812;11.762;2023-12-20T07:25:55;4.30;99.90
22161;DHT22;49035;48.812;11.762;2023-12-20T07:28:20;4.30;99.90
22161;DHT22;49035;48.812;11.762;2023-12-20T07:30:46;4.30;99.90
22161;DHT22;49035;48.812;11.762;2023-12-20T07:33:12;4.30;99.90
22161;DHT22;49035;48.812;11.762;2023-12-20T07:35:37;4.30;99.90
22161;DHT22;49035;48.812;11.762;2023-12-20T07:38:03;4.30;99.90
22161;DHT22;49035;48.812;11.762;2023-12-20T07:40:29;4.30;99.90
22161;DHT22;49035;48.812;11.762;2023-12-20T07:42:55;4.30;99.90
22161;DHT22;49035;48.812;11.762;2023-12-20T07:45:20;4.30;99.90
22161;DHT22;49035;48.812;11.762;2023-12-20T07:47:46;4.30;99.90
22161;DHT22;49035;48.812;11.762;2023-12-20T07:50:11;4.30;99.90
22161;DHT22;49035;48.812;11.762;2023-12-20T07:52:37;4.30;99.90
22161;DHT22;49035;48.812;11.762;2023-12-20T07:55:03;4.30;99.90
22161;DHT22;49035;48.812;11.762;2023-12-20T07:57:29;4.40;99.90
22161;DHT22;49035;48.812;11.762;2023-12-20T07:59:56;4.40;99.90
22161;DHT22;49035;48.812;11.762;2023-12-20T08:02:21;4.40;99.90
22161;DHT22;49035;48.812;11.762;2023-12-20T08:04:47;4.40;99.90
22161;DHT22;49035;48.812;11.762;2023-12-20T08:07:12;4.40;99.90
22161;DHT22;49035;48.812;11.762;2023-12-20T08:09:38;4.40;99.90
22161;DHT22;49035;48.812;11.762;2023-12-20T08:12:04;4.40;99.90
22161;DHT22;49035;48.812;11.762;2023-12-20T08:14:29;4.40;99.90
22161;DHT22;49035;48.812;11.762;2023-12-20T08:16:55;4.50;99.90
22161;DHT22;49035;48.812;11.762;2023-12-20T08:19:20;4.50;99.90
22161;DHT22;49035;48.812;11.762;2023-12-20T08:21:46;4.50;99.90
22161;DHT22;49035;48.812;11.762;2023-12-20T08:24:11;4.60;99.90
22161;DHT22;49035;48.812;11.762;2023-12-20T08:26:37;4.60;99.90
22161;DHT22;49035;48.812;11.762;2023-12-20T08:29:03;4.70;99.90
22161;DHT22;49035;48.812;11.762;2023-12-20T08:31:28;4.70;99.90
22161;DHT22;49035;48.812;11.762;2023-12-20T08:33:54;4.80;99.90
22161;DHT22;49035;48.812;11.762;2023-12-20T08:36:20;4.80;99.90
22161;DHT22;49035;48.812;11.762;2023-12-20T08:38:47;4.80;99.90
22161;DHT22;49035;48.812;11.762;2023-12-20T08:41:13;4.80;99.90
22161;DHT22;49035;48.812;11.762;2023-12-20T08:43:39;4.80;99.90
22161;DHT22;49035;48.812;11.762;2023-12-20T08:46:06;4.80;99.90
22161;DHT22;49035;48.812;11.762;2023-12-20T08:48:31;4.80;99.90
22161;DHT22;49035;48.812;11.762;2023-12-20T08:50:57;4.90;99.90
22161;DHT22;49035;48.812;11.762;2023-12-20T08:53:22;4.80;99.90
22161;DHT22;49035;48.812;11.762;2023-12-20T08:55:48;4.80;99.90
22161;DHT22;49035;48.812;11.762;2023-12-20T08:58:14;4.80;99.90
22161;DHT22;49035;48.812;11.762;2023-12-20T09:00:40;4.90;99.90
22161;DHT22;49035;48.812;11.762;2023-12-20T09:03:05;4.90;99.90
22161;DHT22;49035;48.812;11.762;2023-12-20T09:05:31;5.00;99.90
22161;DHT22;49035;48.812;11.762;2023-12-20T09:07:57;5.00;99.90
22161;DHT22;49035;48.812;11.762;2023-12-20T09:10:23;5.10;99.90
22161;DHT22;49035;48.812;11.762;2023-12-20T09:12:50;5.10;99.90
22161;DHT22;49035;48.812;11.762;2023-12-20T09:15:16;5.10;99.90
22161;DHT22;49035;48.812;11.762;2023-12-20T09:17:42;5.30;99.90
22161;DHT22;49035;48.812;11.762;2023-12-20T09:20:09;5.30;99.90
22161;DHT22;49035;48.812;11.762;2023-12-20T09:22:35;5.30;99.90
22161;DHT22;49035;48.812;11.762;2023-12-20T09:25:01;5.20;99.90
22161;DHT22;49035;48.812;11.762;2023-12-20T09:27:27;5.30;99.90
22161;DHT22;49035;48.812;11.762;2023-12-20T09:29:53;5.30;99.90
22161;DHT22;49035;48.812;11.762;2023-12-20T09:32:19;5.40;99.90
22161;DHT22;49035;48.812;11.762;2023-12-20T09:34:46;5.50;99.90
22161;DHT22;49035;48.812;11.762;2023-12-20T09:37:13;5.70;99.90
22161;DHT22;49035;48.812;11.762;2023-12-20T09:39:38;5.90;99.90
22161;DHT22;49035;48.812;11.762;2023-12-20T09:42:05;6.00;99.90
22161;DHT22;49035;48.812;11.762;2023-12-20T09:44:31;5.90;99.90
22161;DHT22;49035;48.812;11.762;2023-12-20T09:47:02;5.80;99.90
22161;DHT22;49035;48.812;11.762;2023-12-20T09:49:28;5.80;99.90
22161;DHT22;49035;48.812;11.762;2023-12-20T09:51:55;5.90;99.90
22161;DHT22;49035;48.812;11.762;2023-12-20T09:54:22;5.80;99.90
22161;DHT22;49035;48.812;11.762;2023-12-20T09:56:48;5.90;99.90
22161;DHT22;49035;48.812;11.762;2023-12-20T09:59:14;5.90;99.90
22161;DHT22;49035;48.812;11.762;2023-12-20T10:01:40;5.90;99.90
22161;DHT22;49035;48.812;11.762;2023-12-20T10:04:08;6.00;99.90
22161;DHT22;49035;48.812;11.762;2023-12-20T10:06:41;6.10;99.90
22161;DHT22;49035;48.812;11.762;2023-12-20T10:09:06;6.10;99.90
22161;DHT22;49035;48.812;11.762;2023-12-20T10:11:32;6.00;99.90
22161;DHT22;49035;48.812;11.762;2023-12-20T10:14:00;6.00;99.90
22161;DHT22;49035;48.812;11.762;2023-12-20T10:16:28;6.00;99.90
22161;DHT22;49035;48.812;11.762;2023-12-20T10:18:54;6.00;99.90
22161;DHT22;49035;48.812;11.762;2023-12-20T10:21:20;5.90;99.90
22161;DHT22;49035;48.812;11.762;2023-12-20T10:23:46;6.00;99.90
22161;DHT22;49035;48.812;11.762;2023-12-20T10:26:22;5.90;99.90
22161;DHT22;49035;48.812;11.762;2023-12-20T10:28:56;5.90;99.90
22161;DHT22;49035;48.812;11.762;2023-12-20T10:31:30;6.20;99.90
22161;DHT22;49035;48.812;11.762;2023-12-20T10:33:57;6.40;99.90
22161;DHT22;49035;48.812;11.762;2023-12-20T10:36:25;6.50;99.90
22161;DHT22;49035;48.812;11.762;2023-12-20T10:38:53;6.50;99.90
22161;DHT22;49035;48.812;11.762;2023-12-20T10:41:32;6.30;99.90
22161;DHT22;49035;48.812;11.762;2023-12-20T10:44:03;6.10;99.90
22161;DHT22;49035;48.812;11.762;2023-12-20T10:46:30;5.90;99.90
22161;DHT22;49035;48.812;11.762;2023-12-20T10:48:57;5.70;99.90
22161;DHT22;49035;48.812;11.762;2023-12-20T10:51:23;5.30;99.90
22161;DHT22;49035;48.812;11.762;2023-12-20T10:53:52;5.20;99.90
22161;DHT22;49035;48.812;11.762;2023-12-20T10:56:19;5.00;99.90
22161;DHT22;49035;48.812;11.762;2023-12-20T10:58:46;4.90;99.90
22161;DHT22;49035;48.812;11.762;2023-12-20T11:01:17;5.00;99.90
22161;DHT22;49035;48.812;11.762;2023-12-20T11:03:50;5.00;99.90
22161;DHT22;49035;48.812;11.762;2023-12-20T11:14:19;5.00;99.90
22161;DHT22;49035;48.812;11.762;2023-12-20T11:16:45;5.00;99.90
22161;DHT22;49035;48.812;11.762;2023-12-20T11:19:11;5.00;99.90
22161;DHT22;49035;48.812;11.762;2023-12-20T11:21:40;5.10;99.90
22161;DHT22;49035;48.812;11.762;2023-12-20T11:24:06;5.20;99.90
22161;DHT22;49035;48.812;11.762;2023-12-20T11:26:31;5.30;99.90
22161;DHT22;49035;48.812;11.762;2023-12-20T11:29:34;5.30;99.90
22161;DHT22;49035;48.812;11.762;2023-12-20T11:34:51;5.20;99.90
22161;DHT22;49035;48.812;11.762;2023-12-20T11:37:16;5.10;99.90
22161;DHT22;49035;48.812;11.762;2023-12-20T11:39:43;5.00;99.90
22161;DHT22;49035;48.812;11.762;2023-12-20T11:42:10;4.90;99.90
22161;DHT22;49035;48.812;11.762;2023-12-20T11:44:36;4.90;99.90
22161;DHT22;49035;48.812;11.762;2023-12-20T11:47:03;4.90;99.90
22161;DHT22;49035;48.812;11.762;2023-12-20T11:49:28;5.00;99.90
22161;DHT22;49035;48.812;11.762;2023-12-20T11:51:56;5.10;99.90
22161;DHT22;49035;48.812;11.762;2023-12-20T11:54:22;5.30;99.90
22161;DHT22;49035;48.812;11.762;2023-12-20T11:56:48;5.30;99.90
22161;DHT22;49035;48.812;11.762;2023-12-20T11:59:14;5.40;99.90
22161;DHT22;49035;48.812;11.762;2023-12-20T12:01:40;5.50;99.90
22161;DHT22;49035;48.812;11.762;2023-12-20T12:04:12;5.60;99.90
22161;DHT22;49035;48.812;11.762;2023-12-20T12:06:38;5.70;99.90
22161;DHT22;49035;48.812;11.762;2023-12-20T12:09:04;5.80;99.90
22161;DHT22;49035;48.812;11.762;2023-12-20T12:11:30;5.90;99.90
22161;DHT22;49035;48.812;11.762;2023-12-20T12:13:55;6.10;99.90
22161;DHT22;49035;48.812;11.762;2023-12-20T12:16:22;6.10;99.90
22161;DHT22;49035;48.812;11.762;2023-12-20T12:18:58;6.20;99.90
22161;DHT22;49035;48.812;11.762;2023-12-20T12:21:24;6.20;99.90
22161;DHT22;49035;48.812;11.762;2023-12-20T12:23:50;6.20;99.90
22161;DHT22;49035;48.812;11.762;2023-12-20T12:26:16;6.10;99.90
22161;DHT22;49035;48.812;11.762;2023-12-20T12:28:42;6.10;99.90
22161;DHT22;49035;48.812;11.762;2023-12-20T12:31:09;6.10;99.90
22161;DHT22;49035;48.812;11.762;2023-12-20T12:33:38;6.10;99.90
22161;DHT22;49035;48.812;11.762;2023-12-20T12:36:04;6.00;99.90
22161;DHT22;49035;48.812;11.762;2023-12-20T12:38:32;6.00;99.90
22161;DHT22;49035;48.812;11.762;2023-12-20T12:40:58;6.00;99.90
22161;DHT22;49035;48.812;11.762;2023-12-20T12:43:24;6.10;99.90
22161;DHT22;49035;48.812;11.762;2023-12-20T12:45:49;6.30;99.90
22161;DHT22;49035;48.812;11.762;2023-12-20T12:48:15;6.50;99.90
22161;DHT22;49035;48.812;11.762;2023-12-20T12:50:41;6.50;99.90
22161;DHT22;49035;48.812;11.762;2023-12-20T12:53:06;6.60;99.90
22161;DHT22;49035;48.812;11.762;2023-12-20T12:55:34;6.60;99.90
22161;DHT22;49035;48.812;11.762;2023-12-20T12:57:59;6.60;99.90
22161;DHT22;49035;48.812;11.762;2023-12-20T13:00:25;6.50;99.90
22161;DHT22;49035;48.812;11.762;2023-12-20T13:02:51;6.60;99.90
22161;DHT22;49035;48.812;11.762;2023-12-20T13:05:17;6.50;99.90
22161;DHT22;49035;48.812;11.762;2023-12-20T13:07:43;6.60;99.90
22161;DHT22;49035;48.812;11.762;2023-12-20T13:10:11;6.60;99.90
22161;DHT22;49035;48.812;11.762;2023-12-20T13:12:36;6.70;99.90
22161;DHT22;49035;48.812;11.762;2023-12-20T13:15:03;6.80;99.90
22161;DHT22;49035;48.812;11.762;2023-12-20T13:17:31;6.60;99.90
22161;DHT22;49035;48.812;11.762;2023-12-20T13:19:57;6.50;99.90
22161;DHT22;49035;48.812;11.762;2023-12-20T13:22:22;6.40;99.90
22161;DHT22;49035;48.812;11.762;2023-12-20T13:24:48;6.30;99.90
22161;DHT22;49035;48.812;11.762;2023-12-20T13:27:14;6.20;99.90
22161;DHT22;49035;48.812;11.762;2023-12-20T13:29:39;6.10;99.90
22161;DHT22;49035;48.812;11.762;2023-12-20T13:32:05;6.00;99.90
22161;DHT22;49035;48.812;11.762;2023-12-20T13:34:31;6.00;99.90
22161;DHT22;49035;48.812;11.762;2023-12-20T13:36:57;6.10;99.90
22161;DHT22;49035;48.812;11.762;2023-12-20T13:39:22;6.00;99.90
22161;DHT22;49035;48.812;11.762;2023-12-20T13:41:48;5.90;99.90
22161;DHT22;49035;48.812;11.762;2023-12-20T13:44:13;5.90;99.90
22161;DHT22;49035;48.812;11.762;2023-12-20T13:46:41;5.80;99.90
22161;DHT22;49035;48.812;11.762;2023-12-20T13:49:07;5.70;99.90
22161;DHT22;49035;48.812;11.762;2023-12-20T13:51:32;5.60;99.90
22161;DHT22;49035;48.812;11.762;2023-12-20T13:53:58;5.40;99.90
22161;DHT22;49035;48.812;11.762;2023-12-20T13:56:24;5.30;99.90
22161;DHT22;49035;48.812;11.762;2023-12-20T13:58:50;5.10;99.90
22161;DHT22;49035;48.812;11.762;2023-12-20T14:01:16;5.00;99.90
22161;DHT22;49035;48.812;11.762;2023-12-20T14:03:41;4.90;99.90
22161;DHT22;49035;48.812;11.762;2023-12-20T14:06:07;4.90;99.90
22161;DHT22;49035;48.812;11.762;2023-12-20T14:08:33;4.80;99.90
22161;DHT22;49035;48.812;11.762;2023-12-20T14:10:58;4.80;99.90
22161;DHT22;49035;48.812;11.762;2023-12-20T14:13:24;4.80;99.90
22161;DHT22;49035;48.812;11.762;2023-12-20T14:15:49;4.80;99.90
22161;DHT22;49035;48.812;11.762;2023-12-20T14:18:15;4.80;99.90
22161;DHT22;49035;48.812;11.762;2023-12-20T14:20:41;4.80;99.90
22161;DHT22;49035;48.812;11.762;2023-12-20T14:23:08;4.80;99.90
22161;DHT22;49035;48.812;11.762;2023-12-20T14:25:35;4.90;99.90
22161;DHT22;49035;48.812;11.762;2023-12-20T14:28:03;4.90;99.90
22161;DHT22;49035;48.812;11.762;2023-12-20T14:30:28;4.90;99.90
22161;DHT22;49035;48.812;11.762;2023-12-20T14:32:54;4.90;99.90
22161;DHT22;49035;48.812;11.762;2023-12-20T14:35:19;4.80;99.90
22161;DHT22;49035;48.812;11.762;2023-12-20T14:37:45;4.80;99.90
22161;DHT22;49035;48.812;11.762;2023-12-20T14:40:11;4.80;99.90
22161;DHT22;49035;48.812;11.762;2023-12-20T14:42:41;4.80;99.90
22161;DHT22;49035;48.812;11.762;2023-12-20T14:45:07;4.80;99.90
22161;DHT22;49035;48.812;11.762;2023-12-20T14:47:33;4.70;99.90
22161;DHT22;49035;48.812;11.762;2023-12-20T14:49:58;4.70;99.90
22161;DHT22;49035;48.812;11.762;2023-12-20T14:52:24;4.60;99.90
22161;DHT22;49035;48.812;11.762;2023-12-20T14:54:49;4.50;99.90
22161;DHT22;49035;48.812;11.762;2023-12-20T14:57:15;4.40;99.90
22161;DHT22;49035;48.812;11.762;2023-12-20T14:59:40;4.30;99.90
22161;DHT22;49035;48.812;11.762;2023-12-20T15:02:06;4.20;99.90
22161;DHT22;49035;48.812;11.762;2023-12-20T15:04:32;4.00;99.90
22161;DHT22;49035;48.812;11.762;2023-12-20T15:06:57;4.00;99.90
22161;DHT22;49035;48.812;11.762;2023-12-20T15:09:23;4.00;99.90
22161;DHT22;49035;48.812;11.762;2023-12-20T15:11:50;4.00;99.90
22161;DHT22;49035;48.812;11.762;2023-12-20T15:14:15;4.00;99.90
22161;DHT22;49035;48.812;11.762;2023-12-20T15:16:45;4.00;99.90
22161;DHT22;49035;48.812;11.762;2023-12-20T15:19:11;4.00;99.90
22161;DHT22;49035;48.812;11.762;2023-12-20T15:21:37;3.90;99.90
22161;DHT22;49035;48.812;11.762;2023-12-20T15:24:13;3.90;99.90
22161;DHT22;49035;48.812;11.762;2023-12-20T15:26:40;3.80;99.90
22161;DHT22;49035;48.812;11.762;2023-12-20T15:29:07;3.60;99.90
22161;DHT22;49035;48.812;11.762;2023-12-20T15:31:32;3.60;99.90
22161;DHT22;49035;48.812;11.762;2023-12-20T15:33:59;3.60;99.90
22161;DHT22;49035;48.812;11.762;2023-12-20T15:36:24;3.70;99.90